createdAt,value
2023-02-12T00:00:09.320Z,35.50
2023-02-12T00:00:43.477Z,35.07
2023-02-12T00:01:16.473Z,37.13
2023-02-12T00:01:48.839Z,37.73
2023-02-12T00:02:21.217Z,38.00
2023-02-12T00:02:53.616Z,34.37
2023-02-12T00:03:25.926Z,36.80
2023-02-12T00:03:58.376Z,39.07
2023-02-12T00:04:30.700Z,37.40
2023-02-12T00:05:02.991Z,36.30
2023-02-12T00:05:38.428Z,36.43
2023-02-12T00:06:12.122Z,34.87
2023-02-12T00:06:45.848Z,36.10
2023-02-12T00:07:18.301Z,36.50
2023-02-12T00:07:50.578Z,36.93
2023-02-12T00:08:22.848Z,37.60
2023-02-12T00:08:56.407Z,37.23
2023-02-12T00:09:28.745Z,37.97
2023-02-12T00:10:01.175Z,33.07
2023-02-12T00:10:33.769Z,36.80
2023-02-12T00:11:09.645Z,38.77
2023-02-12T00:11:41.960Z,39.53
2023-02-12T00:12:14.308Z,37.27
2023-02-12T00:12:46.674Z,37.63
2023-02-12T00:13:19.008Z,38.87
2023-02-12T00:13:52.102Z,39.37
2023-02-12T00:14:24.400Z,38.50
2023-02-12T00:14:56.721Z,36.73
2023-02-12T00:15:29.133Z,36.97
2023-02-12T00:16:05.350Z,35.93
2023-02-12T00:16:37.679Z,37.37
2023-02-12T00:17:10.018Z,37.93
2023-02-12T00:17:42.279Z,38.27
2023-02-12T00:18:14.571Z,38.27
2023-02-12T00:18:46.857Z,36.97
2023-02-12T00:19:19.200Z,36.30
2023-02-12T00:19:51.560Z,37.07
2023-02-12T00:20:23.861Z,34.87
2023-02-12T00:20:59.505Z,35.70
2023-02-12T00:21:31.869Z,38.33
2023-02-12T00:22:04.219Z,37.83
2023-02-12T00:22:36.500Z,37.93
2023-02-12T00:23:10.187Z,40.03
2023-02-12T00:23:42.521Z,40.03
2023-02-12T00:24:14.895Z,38.20
2023-02-12T00:24:47.237Z,36.97
2023-02-12T00:25:19.571Z,38.57
2023-02-12T00:25:51.853Z,39.20
2023-02-12T00:26:24.296Z,37.50
2023-02-12T00:26:56.578Z,36.93
2023-02-12T00:27:28.927Z,37.83
2023-02-12T00:28:01.275Z,38.90
2023-02-12T00:28:33.714Z,37.33
2023-02-12T00:29:06.052Z,36.60
2023-02-12T00:29:38.534Z,36.60
2023-02-12T00:30:11.167Z,36.47
2023-02-12T00:30:43.748Z,36.63
2023-02-12T00:31:25.502Z,37.73
2023-02-12T00:31:58.076Z,39.13
2023-02-12T00:32:30.441Z,39.37
2023-02-12T00:33:02.988Z,38.37
2023-02-12T00:33:35.405Z,38.17
2023-02-12T00:34:07.801Z,37.50
2023-02-12T00:34:41.099Z,37.33
2023-02-12T00:35:13.587Z,36.47
2023-02-12T00:35:45.959Z,38.07
2023-02-12T00:36:21.031Z,36.90
2023-02-12T00:36:53.353Z,35.67
2023-02-12T00:37:25.688Z,37.37
2023-02-12T00:37:58.252Z,37.63
2023-02-12T00:38:30.685Z,37.40
2023-02-12T00:39:03.931Z,39.77
2023-02-12T00:39:38.073Z,40.03
2023-02-12T00:40:10.976Z,38.07
2023-02-12T00:40:43.279Z,39.43
2023-02-12T00:41:15.781Z,38.03
2023-02-12T00:41:48.092Z,36.80
2023-02-12T00:42:20.422Z,36.93
2023-02-12T00:42:52.818Z,36.90
2023-02-12T00:43:25.145Z,35.40
2023-02-12T00:43:57.571Z,36.00
2023-02-12T00:44:29.962Z,37.30
2023-02-12T00:45:02.276Z,37.97
2023-02-12T00:45:34.606Z,38.83
2023-02-12T00:46:08.044Z,39.43
2023-02-12T00:46:40.861Z,35.33
2023-02-12T00:47:13.208Z,35.30
2023-02-12T00:47:45.536Z,35.40
2023-02-12T00:48:18.013Z,35.60
2023-02-12T00:48:50.376Z,37.87
2023-02-12T00:49:23.244Z,37.00
2023-02-12T00:49:55.584Z,39.37
2023-02-12T00:50:30.710Z,39.13
2023-02-12T00:51:05.242Z,37.67
2023-02-12T00:51:37.596Z,38.17
2023-02-12T00:52:10.007Z,38.93
2023-02-12T00:52:42.313Z,38.67
2023-02-12T00:53:15.091Z,38.23
2023-02-12T00:53:47.551Z,38.33
2023-02-12T00:54:19.900Z,38.23
2023-02-12T00:54:52.200Z,38.83
2023-02-12T00:55:24.511Z,39.63
2023-02-12T00:55:57.132Z,39.83
2023-02-12T00:56:29.792Z,40.60
2023-02-12T00:57:02.313Z,41.83
2023-02-12T00:57:34.674Z,41.77
2023-02-12T00:58:07.796Z,38.83
2023-02-12T00:58:40.109Z,41.30
2023-02-12T00:59:12.431Z,41.47
2023-02-12T00:59:44.822Z,40.47
2023-02-12T01:00:17.415Z,39.37
2023-02-12T01:00:50.079Z,38.73
2023-02-12T01:01:22.451Z,40.30
2023-02-12T01:01:56.327Z,41.70
2023-02-12T01:02:28.692Z,42.53
2023-02-12T01:03:00.988Z,42.13
2023-02-12T01:03:33.405Z,42.10
2023-02-12T01:04:05.763Z,42.30
2023-02-12T01:04:38.110Z,42.53
2023-02-12T01:05:10.945Z,40.90
2023-02-12T01:05:43.638Z,43.33
2023-02-12T01:06:16.003Z,44.50
2023-02-12T01:06:48.484Z,41.30
2023-02-12T01:07:20.787Z,41.00
2023-02-12T01:07:54.442Z,43.00
2023-02-12T01:08:26.754Z,43.60
2023-02-12T01:08:59.124Z,41.73
2023-02-12T01:09:31.403Z,42.43
2023-02-12T01:10:03.820Z,44.13
2023-02-12T01:10:36.215Z,42.90
2023-02-12T01:11:08.571Z,43.23
2023-02-12T01:11:40.880Z,41.10
2023-02-12T01:12:13.197Z,42.97
2023-02-12T01:12:45.522Z,44.80
2023-02-12T01:13:17.830Z,44.00
2023-02-12T01:13:50.255Z,42.53
2023-02-12T01:14:22.653Z,42.20
2023-02-12T01:14:54.979Z,45.37
2023-02-12T01:15:27.292Z,45.47
2023-02-12T01:16:08.531Z,45.40
2023-02-12T01:16:41.147Z,44.33
2023-02-12T01:17:13.460Z,41.73
2023-02-12T01:17:46.134Z,44.40
2023-02-12T01:18:18.422Z,44.93
2023-02-12T01:18:55.491Z,43.77
2023-02-12T01:19:28.054Z,42.73
2023-02-12T01:20:00.480Z,44.27
2023-02-12T01:20:33.124Z,45.63
2023-02-12T01:21:16.825Z,43.37
2023-02-12T01:21:49.220Z,41.77
2023-02-12T01:22:21.531Z,41.93
2023-02-12T01:22:53.881Z,44.93
2023-02-12T01:23:26.284Z,42.57
2023-02-12T01:23:59.396Z,43.03
2023-02-12T01:24:31.727Z,42.23
2023-02-12T01:25:07.589Z,42.60
2023-02-12T01:25:39.967Z,44.50
2023-02-12T01:26:14.066Z,45.97
2023-02-12T01:26:46.447Z,42.57
2023-02-12T01:27:18.843Z,45.27
2023-02-12T01:27:53.979Z,45.23
2023-02-12T01:28:26.351Z,43.87
2023-02-12T01:29:04.487Z,43.03
2023-02-12T01:29:37.015Z,42.33
2023-02-12T01:30:12.395Z,40.97
2023-02-12T01:30:44.747Z,42.27
2023-02-12T01:31:20.483Z,45.57
2023-02-12T01:31:52.938Z,46.83
2023-02-12T01:32:25.546Z,46.93
2023-02-12T01:32:58.266Z,45.23
2023-02-12T01:33:30.688Z,44.07
2023-02-12T01:34:03.384Z,43.53
2023-02-12T01:34:35.697Z,40.20
2023-02-12T01:35:09.920Z,43.13
2023-02-12T01:35:42.235Z,43.40
2023-02-12T01:36:14.661Z,44.67
2023-02-12T01:36:46.965Z,44.00
2023-02-12T01:37:19.347Z,41.47
2023-02-12T01:37:51.664Z,39.97
2023-02-12T01:38:23.940Z,41.60
2023-02-12T01:38:58.040Z,41.80
2023-02-12T01:39:30.328Z,43.17
2023-02-12T01:40:03.435Z,44.07
2023-02-12T01:40:37.354Z,40.80
2023-02-12T01:41:13.453Z,40.80
2023-02-12T01:41:46.087Z,41.40
2023-02-12T01:42:20.994Z,44.57
2023-02-12T01:42:53.303Z,43.57
2023-02-12T01:43:25.581Z,43.43
2023-02-12T01:44:13.032Z,44.67
2023-02-12T01:45:14.288Z,43.00
2023-02-12T01:45:53.615Z,43.67
2023-02-12T01:46:26.332Z,42.70
2023-02-12T01:47:04.718Z,43.37
2023-02-12T01:47:37.033Z,44.23
2023-02-12T01:48:09.321Z,42.40
2023-02-12T01:48:44.472Z,43.23
2023-02-12T01:49:26.530Z,40.30
2023-02-12T01:49:58.927Z,41.13
2023-02-12T01:50:31.395Z,40.73
2023-02-12T01:51:04.852Z,43.07
2023-02-12T01:51:37.579Z,44.67
2023-02-12T01:52:18.024Z,41.30
2023-02-12T01:52:56.120Z,42.93
2023-02-12T01:53:35.582Z,40.77
2023-02-12T01:54:12.116Z,39.57
2023-02-12T01:54:44.506Z,42.27
2023-02-12T01:55:19.260Z,43.67
2023-02-12T01:55:57.386Z,43.10
2023-02-12T01:56:30.118Z,43.77
2023-02-12T01:57:05.185Z,41.47
2023-02-12T01:57:42.821Z,40.33
2023-02-12T01:58:17.074Z,40.57
2023-02-12T01:58:52.525Z,41.17
2023-02-12T01:59:25.764Z,42.00
2023-02-12T02:00:01.754Z,42.27
2023-02-12T02:00:34.181Z,44.47
2023-02-12T02:01:09.697Z,44.47
2023-02-12T02:01:42.380Z,41.60
2023-02-12T02:02:14.973Z,42.80
2023-02-12T02:02:54.067Z,43.13
2023-02-12T02:03:26.474Z,42.90
2023-02-12T02:04:07.686Z,43.50
2023-02-12T02:04:45.095Z,43.13
2023-02-12T02:05:24.697Z,43.97
2023-02-12T02:06:11.193Z,41.33
2023-02-12T02:07:01.644Z,41.80
2023-02-12T02:07:34.042Z,42.53
2023-02-12T02:08:06.514Z,41.53
2023-02-12T02:08:39.566Z,41.43
2023-02-12T02:09:12.092Z,41.73
2023-02-12T02:09:44.643Z,42.40
2023-02-12T02:10:17.356Z,42.10
2023-02-12T02:10:49.663Z,41.47
2023-02-12T02:11:40.430Z,37.67
2023-02-12T02:12:31.511Z,41.37
2023-02-12T02:13:23.122Z,40.83
2023-02-12T02:14:15.240Z,42.77
2023-02-12T02:14:49.644Z,40.80
2023-02-12T02:15:22.212Z,41.23
2023-02-12T02:16:04.260Z,40.93
2023-02-12T02:16:37.702Z,40.23
2023-02-12T02:17:26.433Z,39.57
2023-02-12T02:18:12.647Z,41.27
2023-02-12T02:19:02.332Z,40.50
2023-02-12T02:19:53.257Z,38.73
2023-02-12T02:21:04.076Z,39.50
2023-02-12T02:22:01.907Z,39.90
2023-02-12T02:23:11.992Z,40.03
2023-02-12T02:23:59.809Z,40.40
2023-02-12T02:24:37.913Z,39.77
2023-02-12T02:25:34.604Z,40.43
2023-02-12T02:26:30.692Z,37.13
2023-02-12T02:27:20.449Z,38.37
2023-02-12T02:28:29.964Z,36.60
2023-02-12T02:29:20.726Z,36.57
2023-02-12T02:30:11.569Z,37.47
2023-02-12T02:30:50.755Z,38.70
2023-02-12T02:31:33.123Z,37.03
2023-02-12T02:32:24.576Z,40.00
2023-02-12T02:33:09.093Z,38.50
2023-02-12T02:33:56.248Z,37.73
2023-02-12T02:34:34.561Z,36.00
2023-02-12T02:35:27.084Z,39.67
2023-02-12T02:36:11.295Z,39.63
2023-02-12T02:37:00.477Z,39.43
2023-02-12T02:38:05.148Z,39.73
2023-02-12T02:38:40.224Z,40.13
2023-02-12T02:39:33.478Z,38.63
2023-02-12T02:40:18.348Z,41.17
2023-02-12T02:41:02.694Z,39.87
2023-02-12T02:41:53.674Z,40.23
2023-02-12T02:42:42.233Z,39.77
2023-02-12T02:43:21.475Z,40.10
2023-02-12T02:43:54.867Z,39.03
2023-02-12T02:44:42.306Z,38.50
2023-02-12T02:45:28.199Z,41.10
2023-02-12T02:46:11.963Z,40.87
2023-02-12T02:46:50.523Z,41.37
2023-02-12T02:47:34.009Z,39.60
2023-02-12T02:48:16.220Z,37.73
2023-02-12T02:48:56.992Z,40.47
2023-02-12T02:49:39.252Z,41.33
2023-02-12T02:50:19.898Z,42.13
2023-02-12T02:50:59.077Z,39.53
2023-02-12T02:51:40.050Z,40.83
2023-02-12T02:52:20.262Z,39.80
2023-02-12T02:52:59.669Z,42.13
2023-02-12T02:53:38.734Z,39.07
2023-02-12T02:54:19.277Z,40.70
2023-02-12T02:55:05.754Z,40.87
2023-02-12T02:55:53.243Z,42.47
2023-02-12T02:56:28.357Z,39.97
2023-02-12T02:57:13.393Z,38.60
2023-02-12T02:58:00.871Z,40.23
2023-02-12T02:58:41.230Z,40.50
2023-02-12T02:59:20.781Z,40.17
2023-02-12T03:00:04.013Z,41.00
2023-02-12T03:00:42.986Z,42.77
2023-02-12T03:01:24.979Z,41.97
2023-02-12T03:02:22.350Z,40.30
2023-02-12T03:03:05.164Z,41.07
2023-02-12T03:04:03.720Z,41.73
2023-02-12T03:04:58.314Z,38.37
2023-02-12T03:05:37.893Z,39.87
2023-02-12T03:06:34.172Z,39.40
2023-02-12T03:07:16.668Z,39.07
2023-02-12T03:07:55.092Z,38.20
2023-02-12T03:08:34.730Z,41.10
2023-02-12T03:09:26.262Z,39.47
2023-02-12T03:10:12.142Z,40.57
2023-02-12T03:10:49.946Z,41.47
2023-02-12T03:11:31.550Z,40.77
2023-02-12T03:12:12.187Z,39.57
2023-02-12T03:12:55.403Z,40.83
2023-02-12T03:13:34.960Z,40.70
2023-02-12T03:14:23.560Z,42.27
2023-02-12T03:15:06.416Z,41.37
2023-02-12T03:15:49.858Z,42.23
2023-02-12T03:16:33.866Z,40.70
2023-02-12T03:17:13.464Z,39.37
2023-02-12T03:17:49.190Z,37.93
2023-02-12T03:18:31.880Z,37.60
2023-02-12T03:19:14.306Z,39.97
2023-02-12T03:20:00.600Z,38.43
2023-02-12T03:20:41.467Z,40.43
2023-02-12T03:21:18.805Z,40.83
2023-02-12T03:22:02.439Z,39.97
2023-02-12T03:22:38.301Z,40.63
2023-02-12T03:23:16.993Z,39.20
2023-02-12T03:24:22.254Z,40.80
2023-02-12T03:25:09.684Z,40.73
2023-02-12T03:26:06.013Z,38.90
2023-02-12T03:26:54.594Z,39.27
2023-02-12T03:27:39.350Z,39.93
2023-02-12T03:28:27.194Z,39.70
2023-02-12T03:28:59.626Z,40.57
2023-02-12T03:29:32.217Z,40.17
2023-02-12T03:30:05.820Z,39.30
2023-02-12T03:30:48.808Z,40.20
2023-02-12T03:31:30.184Z,39.20
2023-02-12T03:32:17.211Z,41.37
2023-02-12T03:33:03.973Z,41.17
2023-02-12T03:34:09.797Z,40.17
2023-02-12T03:34:53.606Z,37.97
2023-02-12T03:35:34.503Z,41.23
2023-02-12T03:36:30.081Z,42.43
2023-02-12T03:37:17.827Z,40.20
2023-02-12T03:38:18.995Z,40.40
2023-02-12T03:38:58.326Z,43.00
2023-02-12T03:39:36.438Z,40.47
2023-02-12T03:40:15.694Z,38.37
2023-02-12T03:41:00.040Z,40.33
2023-02-12T03:41:42.243Z,40.17
2023-02-12T03:42:22.400Z,41.67
2023-02-12T03:43:16.528Z,40.13
2023-02-12T03:43:55.953Z,41.80
2023-02-12T03:45:14.385Z,42.63
2023-02-12T03:46:00.440Z,42.40
2023-02-12T03:46:50.821Z,43.00
2023-02-12T03:47:36.918Z,38.97
2023-02-12T03:48:16.827Z,41.23
2023-02-12T03:49:07.204Z,43.37
2023-02-12T03:49:53.718Z,43.53
2023-02-12T03:50:37.982Z,42.50
2023-02-12T03:51:28.048Z,42.47
2023-02-12T03:52:00.502Z,41.50
2023-02-12T03:52:34.160Z,39.30
2023-02-12T03:53:07.236Z,39.53
2023-02-12T03:53:39.691Z,39.47
2023-02-12T03:54:17.971Z,41.57
2023-02-12T03:54:50.904Z,40.93
2023-02-12T03:55:24.138Z,40.60
2023-02-12T03:56:04.480Z,41.73
2023-02-12T03:56:52.189Z,41.67
2023-02-12T03:57:31.422Z,41.47
2023-02-12T03:58:09.916Z,39.80
2023-02-12T03:58:45.203Z,39.27
2023-02-12T03:59:19.223Z,38.37
2023-02-12T03:59:51.679Z,36.83
2023-02-12T04:00:25.584Z,38.37
2023-02-12T04:00:58.937Z,39.07
2023-02-12T04:01:33.655Z,39.77
2023-02-12T04:02:06.869Z,40.57
2023-02-12T04:02:41.126Z,39.87
2023-02-12T04:03:13.494Z,40.50
2023-02-12T04:03:46.292Z,40.00
2023-02-12T04:04:19.251Z,38.23
2023-02-12T04:04:52.100Z,37.77
2023-02-12T04:05:27.591Z,40.20
2023-02-12T04:05:59.982Z,40.90
2023-02-12T04:06:33.019Z,38.53
2023-02-12T04:07:05.421Z,41.20
2023-02-12T04:07:37.869Z,39.03
2023-02-12T04:08:12.916Z,42.13
2023-02-12T04:08:45.309Z,42.13
2023-02-12T04:09:18.520Z,42.47
2023-02-12T04:09:50.963Z,42.10
2023-02-12T04:10:48.641Z,41.37
2023-02-12T04:11:30.929Z,42.00
2023-02-12T04:12:33.849Z,40.77
2023-02-12T04:13:18.959Z,44.30
2023-02-12T04:14:04.760Z,43.90
2023-02-12T04:15:02.035Z,42.10
2023-02-12T04:15:50.734Z,42.17
2023-02-12T04:16:33.184Z,43.00
2023-02-12T04:17:22.266Z,44.33
2023-02-12T04:18:02.691Z,45.00
2023-02-12T04:18:44.652Z,44.23
2023-02-12T04:19:27.801Z,45.60
2023-02-12T04:20:18.284Z,47.40
2023-02-12T04:21:07.271Z,47.10
2023-02-12T04:21:54.836Z,46.23
2023-02-12T04:22:37.011Z,44.73
2023-02-12T04:23:18.168Z,42.23
2023-02-12T04:24:11.703Z,46.80
2023-02-12T04:25:15.808Z,41.90
2023-02-12T04:26:11.002Z,43.30
2023-02-12T04:27:13.868Z,39.53
2023-02-12T04:27:57.430Z,40.93
2023-02-12T04:28:38.854Z,42.57
2023-02-12T04:29:35.672Z,41.67
2023-02-12T04:30:18.007Z,41.07
2023-02-12T04:31:30.370Z,41.53
2023-02-12T04:32:19.673Z,41.03
2023-02-12T04:33:05.020Z,41.27
2023-02-12T04:33:47.955Z,41.33
2023-02-12T04:34:49.322Z,43.17
2023-02-12T04:35:36.741Z,41.60
2023-02-12T04:36:23.506Z,42.47
2023-02-12T04:37:03.762Z,45.23
2023-02-12T04:38:08.674Z,46.33
2023-02-12T04:38:50.075Z,45.70
2023-02-12T04:39:27.435Z,43.90
2023-02-12T04:40:03.247Z,44.93
2023-02-12T04:40:38.773Z,47.90
2023-02-12T04:41:11.432Z,50.17
2023-02-12T04:41:43.812Z,49.60
2023-02-12T04:42:16.440Z,47.57
2023-02-12T04:42:51.649Z,46.03
2023-02-12T04:43:36.574Z,50.50
2023-02-12T04:44:30.089Z,49.73
2023-02-12T04:45:02.602Z,63.20
2023-02-12T04:45:37.257Z,60.13
2023-02-12T04:46:09.753Z,61.60
2023-02-12T04:46:42.112Z,60.30
2023-02-12T04:47:16.317Z,61.07
2023-02-12T04:47:48.783Z,62.00
2023-02-12T04:48:22.234Z,60.83
2023-02-12T04:48:59.198Z,58.03
2023-02-12T04:49:31.841Z,58.00
2023-02-12T04:50:04.936Z,60.67
2023-02-12T04:50:42.864Z,66.43
2023-02-12T04:51:15.177Z,64.10
2023-02-12T04:51:48.702Z,61.37
2023-02-12T04:52:21.051Z,58.40
2023-02-12T04:52:53.377Z,59.00
2023-02-12T04:53:25.829Z,57.00
2023-02-12T04:53:58.145Z,54.67
2023-02-12T04:54:30.487Z,52.63
2023-02-12T04:55:02.803Z,52.90
2023-02-12T04:55:35.198Z,52.73
2023-02-12T04:56:11.687Z,52.57
2023-02-12T04:56:44.521Z,53.33
2023-02-12T04:57:16.818Z,51.60
2023-02-12T04:57:49.181Z,52.57
2023-02-12T04:58:21.549Z,50.83
2023-02-12T04:58:57.745Z,49.40
2023-02-12T04:59:30.121Z,47.03
2023-02-12T05:00:02.627Z,47.03
2023-02-12T05:00:35.002Z,47.90
2023-02-12T05:01:09.305Z,49.50
2023-02-12T05:01:43.032Z,51.27
2023-02-12T05:02:15.424Z,50.17
2023-02-12T05:02:47.824Z,48.47
2023-02-12T05:03:20.198Z,49.23
2023-02-12T05:03:52.730Z,50.37
2023-02-12T05:04:25.079Z,48.23
2023-02-12T05:04:57.468Z,47.40
2023-02-12T05:05:29.997Z,46.20
2023-02-12T05:06:04.329Z,45.93
2023-02-12T05:06:38.006Z,45.53
2023-02-12T05:07:11.710Z,46.53
2023-02-12T05:07:44.005Z,46.30
2023-02-12T05:08:16.385Z,46.20
2023-02-12T05:08:48.784Z,46.70
2023-02-12T05:09:21.549Z,48.57
2023-02-12T05:09:54.714Z,47.40
2023-02-12T05:10:27.544Z,47.03
2023-02-12T05:11:10.730Z,47.17
2023-02-12T05:11:43.271Z,47.10
2023-02-12T05:12:15.720Z,46.77
2023-02-12T05:12:48.136Z,47.50
2023-02-12T05:13:20.462Z,47.67
2023-02-12T05:13:54.093Z,46.80
2023-02-12T05:14:26.489Z,47.23
2023-02-12T05:14:58.888Z,48.63
2023-02-12T05:15:31.216Z,48.60
2023-02-12T05:16:05.001Z,46.43
2023-02-12T05:16:38.477Z,45.53
2023-02-12T05:17:57.121Z,46.33
2023-02-12T05:18:29.667Z,46.20
2023-02-12T05:19:02.186Z,43.50
2023-02-12T05:19:34.709Z,44.97
2023-02-12T05:20:07.622Z,46.43
2023-02-12T05:20:40.067Z,45.80
2023-02-12T05:21:12.707Z,45.00
2023-02-12T05:21:45.030Z,43.67
2023-02-12T05:22:18.585Z,44.53
2023-02-12T05:22:54.192Z,44.43
2023-02-12T05:23:32.099Z,45.80
2023-02-12T05:24:04.786Z,45.73
2023-02-12T05:24:37.595Z,43.40
2023-02-12T05:25:10.186Z,43.50
2023-02-12T05:25:42.553Z,45.60
2023-02-12T05:26:18.096Z,46.30
2023-02-12T05:26:50.807Z,44.87
2023-02-12T05:27:23.280Z,44.70
2023-02-12T05:27:57.140Z,45.40
2023-02-12T05:28:30.599Z,45.13
2023-02-12T05:29:03.577Z,43.87
2023-02-12T05:29:37.240Z,44.07
2023-02-12T05:30:09.891Z,44.70
2023-02-12T05:30:42.251Z,43.97
2023-02-12T05:31:20.746Z,43.87
2023-02-12T05:31:53.620Z,43.73
2023-02-12T05:32:26.003Z,41.40
2023-02-12T05:32:58.339Z,42.93
2023-02-12T05:33:31.661Z,43.87
2023-02-12T05:34:04.081Z,42.83
2023-02-12T05:34:36.857Z,41.23
2023-02-12T05:35:09.265Z,41.10
2023-02-12T05:35:41.665Z,44.37
2023-02-12T05:36:17.271Z,42.50
2023-02-12T05:36:49.680Z,43.33
2023-02-12T05:37:22.134Z,44.57
2023-02-12T05:37:54.467Z,42.43
2023-02-12T05:38:26.815Z,42.77
2023-02-12T05:39:00.366Z,44.37
2023-02-12T05:39:32.690Z,42.77
2023-02-12T05:40:06.824Z,42.07
2023-02-12T05:40:40.407Z,42.10
2023-02-12T05:41:19.683Z,41.60
2023-02-12T05:41:52.030Z,42.20
2023-02-12T05:42:24.413Z,42.07
2023-02-12T05:42:56.776Z,42.13
2023-02-12T05:43:29.158Z,42.37
2023-02-12T05:44:03.542Z,42.27
2023-02-12T05:44:35.978Z,44.33
2023-02-12T05:45:08.696Z,45.87
2023-02-12T05:45:43.157Z,45.43
2023-02-12T05:46:15.867Z,44.57
2023-02-12T05:46:48.354Z,44.17
2023-02-12T05:47:20.776Z,44.33
2023-02-12T05:47:53.215Z,44.23
2023-02-12T05:48:25.804Z,44.37
2023-02-12T05:48:58.199Z,45.60
2023-02-12T05:49:30.632Z,44.33
2023-02-12T05:50:03.121Z,44.10
2023-02-12T05:50:35.440Z,44.93
2023-02-12T05:51:11.453Z,45.80
2023-02-12T05:51:43.808Z,44.83
2023-02-12T05:52:16.118Z,44.03
2023-02-12T05:52:48.536Z,43.57
2023-02-12T05:53:21.317Z,45.23
2023-02-12T05:53:59.995Z,42.50
2023-02-12T05:54:32.349Z,44.00
2023-02-12T05:55:05.052Z,43.80
2023-02-12T05:55:37.367Z,42.90
2023-02-12T05:56:35.003Z,45.40
2023-02-12T05:57:28.195Z,46.37
2023-02-12T05:58:00.574Z,44.03
2023-02-12T05:58:32.913Z,45.13
2023-02-12T05:59:08.230Z,44.53
2023-02-12T05:59:40.633Z,44.70
2023-02-12T06:00:13.758Z,44.70
2023-02-12T06:00:46.135Z,46.83
2023-02-12T06:01:25.064Z,46.03
2023-02-12T06:01:57.600Z,45.07
2023-02-12T06:02:30.024Z,46.20
2023-02-12T06:03:02.576Z,43.87
2023-02-12T06:03:34.946Z,45.23
2023-02-12T06:04:13.115Z,45.50
2023-02-12T06:04:47.584Z,46.53
2023-02-12T06:05:20.852Z,45.10
2023-02-12T06:05:54.248Z,45.60
2023-02-12T06:06:28.665Z,45.90
2023-02-12T06:07:01.364Z,44.67
2023-02-12T06:07:33.680Z,46.60
2023-02-12T06:08:05.961Z,47.03
2023-02-12T06:08:39.051Z,45.53
2023-02-12T06:09:13.041Z,46.33
2023-02-12T06:09:45.495Z,45.63
2023-02-12T06:10:17.921Z,44.97
2023-02-12T06:10:50.218Z,42.20
2023-02-12T06:11:23.003Z,41.73
2023-02-12T06:11:55.407Z,41.70
2023-02-12T06:12:27.739Z,43.93
2023-02-12T06:13:00.139Z,43.50
2023-02-12T06:13:33.090Z,42.87
2023-02-12T06:14:08.233Z,44.67
2023-02-12T06:14:41.487Z,46.83
2023-02-12T06:15:13.841Z,46.93
2023-02-12T06:15:46.252Z,46.70
2023-02-12T06:16:22.653Z,47.17
2023-02-12T06:16:55.125Z,47.90
2023-02-12T06:17:27.455Z,49.50
2023-02-12T06:17:59.758Z,47.27
2023-02-12T06:18:34.884Z,48.90
2023-02-12T06:19:08.565Z,51.93
2023-02-12T06:19:41.292Z,58.40
2023-02-12T06:20:15.281Z,84.43
2023-02-12T06:20:47.586Z,73.57
2023-02-12T06:21:21.975Z,70.73
2023-02-12T06:21:54.301Z,69.73
2023-02-12T06:22:28.337Z,71.20
2023-02-12T06:23:00.707Z,68.43
2023-02-12T06:23:33.002Z,64.57
2023-02-12T06:24:05.445Z,60.23
2023-02-12T06:24:37.847Z,57.00
2023-02-12T06:25:10.253Z,54.70
2023-02-12T06:25:42.858Z,54.97
2023-02-12T06:26:15.951Z,54.10
2023-02-12T06:26:50.883Z,49.47
2023-02-12T06:27:23.348Z,50.57
2023-02-12T06:27:55.787Z,52.40
2023-02-12T06:28:28.223Z,49.60
2023-02-12T06:29:01.453Z,44.77
2023-02-12T06:29:33.860Z,43.50
2023-02-12T06:30:06.862Z,43.37
2023-02-12T06:30:39.172Z,44.30
2023-02-12T06:31:21.986Z,43.80
2023-02-12T06:31:54.544Z,43.47
2023-02-12T06:32:26.946Z,42.63
2023-02-12T06:32:59.299Z,42.77
2023-02-12T06:33:32.234Z,42.53
2023-02-12T06:34:07.333Z,40.07
2023-02-12T06:34:40.733Z,40.60
2023-02-12T06:35:13.097Z,40.23
2023-02-12T06:35:45.457Z,40.63
2023-02-12T06:36:18.560Z,41.37
2023-02-12T06:36:50.863Z,41.37
2023-02-12T06:37:23.201Z,40.93
2023-02-12T06:37:55.530Z,42.37
2023-02-12T06:38:27.888Z,43.20
2023-02-12T06:39:04.048Z,43.80
2023-02-12T06:39:36.337Z,44.67
2023-02-12T06:40:09.181Z,69.47
2023-02-12T06:40:41.868Z,95.97
2023-02-12T06:41:14.746Z,96.77
2023-02-12T06:41:47.159Z,102.90
2023-02-12T06:42:19.823Z,175.30
2023-02-12T06:42:52.197Z,190.17
2023-02-12T06:43:24.539Z,213.70
2023-02-12T06:43:56.945Z,226.47
2023-02-12T06:44:29.298Z,156.57
2023-02-12T06:45:01.636Z,89.70
2023-02-12T06:45:34.778Z,70.43
2023-02-12T06:46:07.781Z,60.50
2023-02-12T06:46:40.479Z,52.60
2023-02-12T06:47:12.833Z,51.17
2023-02-12T06:47:45.165Z,49.97
2023-02-12T06:48:17.497Z,51.17
2023-02-12T06:48:54.505Z,53.37
2023-02-12T06:49:26.841Z,53.83
2023-02-12T06:49:59.186Z,52.30
2023-02-12T06:50:31.577Z,54.07
2023-02-12T06:51:09.289Z,54.67
2023-02-12T06:51:41.889Z,52.33
2023-02-12T06:52:14.367Z,52.63
2023-02-12T06:52:46.719Z,53.40
2023-02-12T06:53:19.101Z,55.07
2023-02-12T06:53:54.466Z,57.70
2023-02-12T06:54:26.782Z,58.50
2023-02-12T06:54:59.141Z,60.57
2023-02-12T06:55:31.483Z,63.77
2023-02-12T06:56:11.767Z,64.63
2023-02-12T06:56:44.844Z,60.47
2023-02-12T06:57:17.196Z,58.97
2023-02-12T06:57:49.712Z,57.30
2023-02-12T06:58:22.022Z,58.93
2023-02-12T06:58:57.375Z,67.77
2023-02-12T06:59:31.093Z,81.50
2023-02-12T07:00:04.239Z,87.47
2023-02-12T07:00:36.712Z,91.67
2023-02-12T07:01:17.716Z,89.10
2023-02-12T07:01:50.138Z,85.23
2023-02-12T07:02:22.850Z,85.50
2023-02-12T07:02:56.111Z,88.30
2023-02-12T07:03:28.447Z,86.77
2023-02-12T07:04:02.971Z,83.73
2023-02-12T07:04:35.438Z,83.37
2023-02-12T07:05:07.966Z,82.03
2023-02-12T07:05:40.353Z,88.30
2023-02-12T07:06:12.810Z,90.83
2023-02-12T07:06:45.205Z,89.47
2023-02-12T07:07:17.615Z,87.93
2023-02-12T07:07:50.536Z,81.03
2023-02-12T07:08:22.960Z,77.63
2023-02-12T07:08:56.093Z,77.63
2023-02-12T07:09:28.521Z,74.87
2023-02-12T07:10:00.907Z,73.50
2023-02-12T07:10:33.326Z,74.37
2023-02-12T07:11:06.601Z,73.37
2023-02-12T07:11:39.083Z,73.17
2023-02-12T07:12:11.452Z,69.50
2023-02-12T07:12:43.807Z,67.07
2023-02-12T07:13:16.301Z,68.03
2023-02-12T07:13:48.705Z,71.43
2023-02-12T07:14:21.029Z,71.13
2023-02-12T07:14:53.391Z,68.23
2023-02-12T07:15:25.720Z,69.60
2023-02-12T07:15:58.348Z,66.37
2023-02-12T07:16:30.999Z,66.70
2023-02-12T07:17:05.475Z,66.40
2023-02-12T07:17:37.839Z,68.60
2023-02-12T07:18:10.158Z,80.90
2023-02-12T07:18:43.812Z,76.27
2023-02-12T07:19:16.779Z,77.13
2023-02-12T07:19:49.096Z,82.63
2023-02-12T07:20:21.556Z,89.37
2023-02-12T07:20:56.514Z,87.63
2023-02-12T07:21:28.868Z,87.37
2023-02-12T07:22:01.220Z,82.87
2023-02-12T07:22:36.413Z,80.77
2023-02-12T07:23:11.841Z,75.37
2023-02-12T07:23:51.041Z,72.17
2023-02-12T07:24:23.806Z,67.60
2023-02-12T07:24:56.131Z,67.67
2023-02-12T07:25:28.480Z,69.27
2023-02-12T07:26:06.523Z,67.57
2023-02-12T07:26:39.777Z,62.77
2023-02-12T07:27:12.091Z,61.90
2023-02-12T07:27:44.430Z,66.50
2023-02-12T07:28:16.812Z,70.40
2023-02-12T07:28:52.271Z,68.87
2023-02-12T07:29:24.773Z,77.90
2023-02-12T07:29:57.101Z,78.20
2023-02-12T07:30:29.645Z,76.43
2023-02-12T07:31:14.729Z,74.07
2023-02-12T07:31:47.260Z,75.20
2023-02-12T07:32:19.670Z,75.90
2023-02-12T07:32:51.958Z,75.90
2023-02-12T07:33:24.294Z,74.87
2023-02-12T07:33:58.825Z,75.03
2023-02-12T07:34:31.242Z,73.50
2023-02-12T07:35:03.550Z,71.20
2023-02-12T07:35:35.880Z,69.93
2023-02-12T07:36:14.180Z,68.93
2023-02-12T07:36:46.495Z,68.20
2023-02-12T07:37:22.650Z,67.73
2023-02-12T07:37:54.965Z,70.30
2023-02-12T07:38:28.198Z,68.20
2023-02-12T07:39:01.666Z,69.10
2023-02-12T07:39:33.951Z,68.57
2023-02-12T07:40:07.116Z,68.90
2023-02-12T07:40:39.495Z,72.47
2023-02-12T07:41:20.366Z,72.23
2023-02-12T07:41:52.663Z,68.33
2023-02-12T07:42:24.980Z,68.80
2023-02-12T07:42:57.311Z,69.50
2023-02-12T07:43:29.602Z,70.80
2023-02-12T07:44:07.701Z,70.33
2023-02-12T07:44:40.062Z,70.30
2023-02-12T07:45:12.436Z,70.37
2023-02-12T07:45:44.802Z,68.13
2023-02-12T07:46:20.379Z,67.77
2023-02-12T07:46:52.703Z,70.27
2023-02-12T07:47:24.982Z,71.70
2023-02-12T07:47:57.318Z,73.43
2023-02-12T07:48:29.616Z,75.67
2023-02-12T07:49:05.451Z,73.47
2023-02-12T07:49:37.735Z,73.17